Time;durP1;ratioP1;P1;durP2;ratioP2;P2;SDS_P1;SDS_P2;PMS_P1;PMS_P2;Temp;Humidity;BMP_temperature;BMP_pressure;BME280_temperature;BME280_humidity;BME280_pressure;Samples;Min_cycle;Max_cycle;Signal;HPM_P1;HPM_P2
2023/06/04 00:02:11;;;;;;;5.30;1.50;;;13.70;75.70;;;;;;4993203;28;20085;-42
2023/06/04 00:04:38;;;;;;;3.70;1.50;;;13.60;75.40;;;;;;4992201;28;20089;-41
2023/06/04 00:07:05;;;;;;;5.97;2.00;;;13.60;75.80;;;;;;4992317;28;20050;-41
2023/06/04 00:09:32;;;;;;;4.07;1.95;;;13.50;75.90;;;;;;4989519;28;20050;-38
2023/06/04 00:12:00;;;;;;;3.20;1.70;;;13.50;76.10;;;;;;4993834;28;20085;-41
2023/06/04 00:14:27;;;;;;;4.22;1.95;;;13.50;76.60;;;;;;4975940;28;20065;-39
2023/06/04 00:16:54;;;;;;;6.20;1.95;;;13.40;76.70;;;;;;4986321;28;20081;-41
2023/06/04 00:19:20;;;;;;;3.75;1.73;;;13.40;77.40;;;;;;4986773;28;20082;-36
2023/06/04 00:21:47;;;;;;;5.40;2.38;;;13.30;76.70;;;;;;4975754;28;20092;-39
2023/06/04 00:24:14;;;;;;;4.18;1.70;;;13.30;77.00;;;;;;4975314;28;20106;-39
2023/06/04 00:26:41;;;;;;;4.68;1.90;;;13.20;77.20;;;;;;4991365;28;20093;-39
2023/06/04 00:29:09;;;;;;;3.85;1.83;;;13.20;77.40;;;;;;4991326;28;20137;-39
2023/06/04 00:31:36;;;;;;;2.97;1.80;;;13.20;77.80;;;;;;4992721;28;20047;-40
2023/06/04 00:34:05;;;;;;;5.30;2.42;;;13.10;77.70;;;;;;4992185;28;21018;-40
2023/06/04 00:36:31;;;;;;;4.63;2.08;;;13.10;77.80;;;;;;4993489;28;20492;-40
2023/06/04 00:38:58;;;;;;;5.85;2.35;;;13.00;78.10;;;;;;4992182;28;20058;-39
2023/06/04 00:41:25;;;;;;;3.83;1.95;;;13.00;78.80;;;;;;4984132;28;20057;-37
2023/06/04 00:43:55;;;;;;;5.63;2.20;;;13.00;79.00;;;;;;4982316;28;20090;-42
2023/06/04 00:46:25;;;;;;;7.63;2.20;;;12.90;78.80;;;;;;4992706;28;20518;-39
2023/06/04 00:48:52;;;;;;;5.25;2.10;;;12.90;79.20;;;;;;4991560;28;20129;-40
2023/06/04 00:51:19;;;;;;;4.30;2.00;;;12.80;79.30;;;;;;4992934;28;20101;-37
2023/06/04 00:53:46;;;;;;;7.53;2.85;;;12.80;79.80;;;;;;4991423;28;20129;-40
2023/06/04 00:56:13;;;;;;;8.85;2.72;;;12.80;79.50;;;;;;4990152;28;20108;-42
2023/06/04 00:58:43;;;;;;;6.30;2.30;;;12.70;80.10;;;;;;4998649;28;20134;-37
2023/06/04 01:01:13;;;;;;;5.03;2.70;;;12.70;79.70;;;;;;4989486;28;20083;-38
2023/06/04 01:03:43;;;;;;;8.00;3.20;;;12.70;80.80;;;;;;4993172;28;20101;-39
2023/06/04 01:06:13;;;;;;;7.93;3.35;;;12.80;80.70;;;;;;4990416;28;20137;-38
2023/06/04 01:08:42;;;;;;;7.70;2.60;;;12.60;81.30;;;;;;4990203;28;20221;-37
2023/06/04 01:11:09;;;;;;;7.35;2.70;;;12.60;80.60;;;;;;4986937;28;20053;-38
2023/06/04 01:13:36;;;;;;;6.60;2.78;;;12.60;80.80;;;;;;4989349;28;20120;-39
2023/06/04 01:16:03;;;;;;;10.65;3.28;;;12.60;81.40;;;;;;4986213;28;20136;-39
2023/06/04 01:18:32;;;;;;;10.52;3.15;;;12.50;81.70;;;;;;4985932;28;20069;-39
2023/06/04 01:21:01;;;;;;;5.45;2.60;;;12.50;82.10;;;;;;4974754;28;20404;-40
2023/06/04 01:23:34;;;;;;;5.28;2.97;;;12.50;82.50;;;;;;4991331;28;20178;-39
2023/06/04 01:26:03;;;;;;;11.57;3.35;;;12.50;82.40;;;;;;4991902;28;20082;-36
2023/06/04 01:28:30;;;;;;;6.75;3.10;;;12.40;82.50;;;;;;4990847;28;20058;-38
2023/06/04 01:30:57;;;;;;;5.85;3.00;;;12.40;82.90;;;;;;4990522;28;20046;-37
2023/06/04 01:33:24;;;;;;;11.93;4.13;;;12.30;82.80;;;;;;4990783;28;20094;-39
2023/06/04 01:35:51;;;;;;;9.32;3.20;;;12.30;83.40;;;;;;4991499;28;20054;-40
2023/06/04 01:38:19;;;;;;;8.40;3.60;;;12.30;83.60;;;;;;4990397;28;20082;-36
2023/06/04 01:40:46;;;;;;;8.25;3.80;;;12.20;84.40;;;;;;4991830;28;20050;-36
2023/06/04 01:43:13;;;;;;;6.57;2.88;;;12.20;84.70;;;;;;4981925;28;20097;-39
2023/06/04 01:45:43;;;;;;;6.75;3.47;;;12.20;84.70;;;;;;4986984;28;20086;-42
2023/06/04 01:48:09;;;;;;;8.63;3.55;;;12.10;84.70;;;;;;4973684;28;20137;-38
2023/06/04 01:50:36;;;;;;;6.57;3.65;;;12.10;84.80;;;;;;4986549;28;20075;-37
2023/06/04 01:53:03;;;;;;;7.95;3.42;;;12.00;85.50;;;;;;4989416;28;20089;-40
2023/06/04 01:55:33;;;;;;;8.00;3.40;;;12.00;85.30;;;;;;4989501;28;20046;-39
2023/06/04 01:57:59;;;;;;;7.63;3.85;;;12.00;85.30;;;;;;4991622;28;20105;-40
2023/06/04 02:00:26;;;;;;;6.97;3.22;;;11.90;85.70;;;;;;4990824;28;20058;-39
2023/06/04 02:02:55;;;;;;;6.10;3.40;;;11.90;85.60;;;;;;4984217;28;20141;-40
2023/06/04 02:05:22;;;;;;;6.25;3.35;;;11.90;85.80;;;;;;4989362;28;20054;-32
2023/06/04 02:07:49;;;;;;;9.02;3.45;;;11.90;85.70;;;;;;4979124;28;20485;-40
2023/06/04 02:10:16;;;;;;;10.35;3.83;;;11.80;86.00;;;;;;4979413;28;20466;-40
2023/06/04 02:12:55;;;;;;;13.23;4.40;;;11.80;86.40;;;;;;4990370;28;20089;-40
2023/06/04 02:15:23;;;;;;;11.38;3.63;;;11.80;86.50;;;;;;4991749;28;20058;-38
2023/06/04 02:17:51;;;;;;;11.13;4.50;;;11.70;86.80;;;;;;4974561;28;20086;-40
2023/06/04 02:20:18;;;;;;;11.18;4.22;;;11.70;87.80;;;;;;4990223;28;20089;-37
2023/06/04 02:22:44;;;;;;;7.80;4.30;;;11.70;88.20;;;;;;4993578;28;20072;-41
2023/06/04 02:25:11;;;;;;;9.02;4.78;;;11.70;88.90;;;;;;4994265;28;20054;-42
2023/06/04 02:27:38;;;;;;;8.45;4.10;;;11.60;89.50;;;;;;4994583;28;20112;-39
2023/06/04 02:30:07;;;;;;;9.10;4.45;;;11.60;89.90;;;;;;4995646;28;20053;-37
2023/06/04 02:32:35;;;;;;;9.35;4.50;;;11.60;90.30;;;;;;4994889;28;20469;-39
2023/06/04 02:35:03;;;;;;;7.72;3.85;;;11.50;91.00;;;;;;4993685;28;20190;-42
2023/06/04 02:37:32;;;;;;;9.18;3.70;;;11.50;90.70;;;;;;4995016;28;20100;-41
2023/06/04 02:39:59;;;;;;;12.68;4.53;;;11.50;90.80;;;;;;4979827;28;20506;-38
2023/06/04 02:42:26;;;;;;;8.20;4.32;;;11.50;91.10;;;;;;4975051;28;20121;-41
2023/06/04 02:44:52;;;;;;;11.82;4.22;;;11.50;91.50;;;;;;4993434;28;20407;-42
2023/06/04 02:47:20;;;;;;;11.27;4.15;;;11.50;91.60;;;;;;4994617;28;20117;-38
2023/06/04 02:49:47;;;;;;;11.88;4.35;;;11.50;91.40;;;;;;4992790;28;20062;-41
2023/06/04 02:52:17;;;;;;;10.32;4.10;;;11.40;91.50;;;;;;4992019;28;20494;-41
2023/06/04 02:54:44;;;;;;;8.77;4.28;;;11.40;91.60;;;;;;4974792;28;20096;-41
2023/06/04 02:57:11;;;;;;;12.65;4.85;;;11.40;91.70;;;;;;4992607;28;20046;-36
2023/06/04 02:59:38;;;;;;;9.55;4.65;;;11.40;91.90;;;;;;4994499;28;20046;-41
2023/06/04 03:02:05;;;;;;;10.30;4.75;;;11.40;92.30;;;;;;4993363;28;20502;-36
2023/06/04 03:04:34;;;;;;;9.30;3.85;;;11.40;92.50;;;;;;4992679;28;20057;-37
2023/06/04 03:07:02;;;;;;;8.93;4.20;;;11.30;92.40;;;;;;4980153;28;20594;-40
2023/06/04 03:09:29;;;;;;;10.95;4.35;;;11.30;92.50;;;;;;4976396;28;20055;-40
2023/06/04 03:11:57;;;;;;;8.38;3.65;;;11.30;92.60;;;;;;4977844;28;20118;-38
2023/06/04 03:14:31;;;;;;;12.60;3.88;;;11.30;92.70;;;;;;4992089;28;20109;-41
2023/06/04 03:17:00;;;;;;;14.25;4.45;;;11.30;92.30;;;;;;4993951;28;20046;-38
2023/06/04 03:19:27;;;;;;;11.35;4.82;;;11.30;92.90;;;;;;4976386;28;20051;-40
2023/06/04 03:21:56;;;;;;;12.35;4.55;;;11.30;93.70;;;;;;4987968;28;20093;-39
2023/06/04 03:24:23;;;;;;;11.95;4.63;;;11.20;94.00;;;;;;4993091;28;20061;-40
2023/06/04 03:26:50;;;;;;;10.15;4.57;;;11.20;94.20;;;;;;4994195;28;20082;-41
2023/06/04 03:29:16;;;;;;;12.23;4.93;;;11.20;94.90;;;;;;4990185;28;20085;-40
2023/06/04 03:31:45;;;;;;;9.82;4.53;;;11.10;94.70;;;;;;4974648;28;20138;-38
2023/06/04 03:34:12;;;;;;;8.13;4.40;;;11.10;94.60;;;;;;4988589;28;20588;-38
2023/06/04 03:36:39;;;;;;;9.35;4.13;;;11.10;94.80;;;;;;4993618;28;20474;-36
2023/06/04 03:39:07;;;;;;;8.93;4.25;;;11.10;94.70;;;;;;4993832;28;20054;-38
2023/06/04 03:41:34;;;;;;;11.48;4.13;;;11.10;94.60;;;;;;4989500;28;20101;-38
2023/06/04 03:44:01;;;;;;;10.27;4.30;;;11.10;94.70;;;;;;4974086;28;20526;-39
2023/06/04 03:46:31;;;;;;;14.38;4.60;;;11.10;94.60;;;;;;4985620;28;20082;-40
2023/06/04 03:48:58;;;;;;;9.05;4.78;;;11.10;95.10;;;;;;4984286;28;20047;-38
2023/06/04 03:51:25;;;;;;;13.00;5.85;;;11.10;95.50;;;;;;4993352;28;20120;-39
2023/06/04 03:53:51;;;;;;;11.05;4.60;;;11.10;96.50;;;;;;4993615;28;20058;-42
2023/06/04 03:56:21;;;;;;;10.27;4.15;;;11.10;96.90;;;;;;4994047;28;20518;-41
2023/06/04 03:58:48;;;;;;;9.43;4.32;;;11.00;97.30;;;;;;4993329;28;20047;-40
2023/06/04 04:01:15;;;;;;;10.93;4.35;;;11.00;97.10;;;;;;4981711;28;20145;-40
2023/06/04 04:03:42;;;;;;;9.45;4.68;;;11.00;97.00;;;;;;4980565;28;20521;-40
2023/06/04 04:06:10;;;;;;;8.95;4.75;;;11.00;96.80;;;;;;4990837;28;20058;-36
2023/06/04 04:08:42;;;;;;;14.43;4.50;;;11.00;96.90;;;;;;4983168;28;20065;-40
2023/06/04 04:11:08;;;;;;;13.60;4.90;;;11.10;97.30;;;;;;4984001;28;20057;-41
2023/06/04 04:13:36;;;;;;;12.77;5.00;;;11.10;97.60;;;;;;4984356;28;20129;-36
2023/06/04 04:16:03;;;;;;;10.65;5.00;;;11.00;98.10;;;;;;4992840;28;20471;-38
2023/06/04 04:18:33;;;;;;;12.23;4.78;;;11.10;98.30;;;;;;4979874;28;20054;-37
2023/06/04 04:21:00;;;;;;;13.77;5.25;;;11.10;98.70;;;;;;4975793;28;20510;-40
2023/06/04 04:23:27;;;;;;;16.15;6.18;;;11.10;99.20;;;;;;4974664;28;20109;-40
2023/06/04 04:25:56;;;;;;;18.67;6.40;;;11.10;99.90;;;;;;4991918;28;20061;-36
2023/06/04 04:28:23;;;;;;;18.30;6.68;;;11.10;99.90;;;;;;4993072;28;20065;-39
2023/06/04 04:30:51;;;;;;;11.65;5.32;;;11.10;99.90;;;;;;4991931;28;20050;-41
2023/06/04 04:33:17;;;;;;;18.38;7.15;;;11.20;99.90;;;;;;4992474;28;20077;-40
2023/06/04 04:35:45;;;;;;;19.90;8.05;;;11.20;99.90;;;;;;4991085;28;20070;-41
2023/06/04 04:38:13;;;;;;;13.07;5.68;;;11.20;99.90;;;;;;4992633;28;20054;-40
2023/06/04 04:40:39;;;;;;;13.02;5.05;;;11.20;99.90;;;;;;4991514;28;20398;-39
2023/06/04 04:43:06;;;;;;;16.63;5.93;;;11.30;99.90;;;;;;4976027;28;20086;-40
2023/06/04 04:45:33;;;;;;;19.98;7.43;;;11.30;99.90;;;;;;4990038;28;20196;-37
2023/06/04 04:48:01;;;;;;;16.25;5.43;;;11.30;99.90;;;;;;4992417;28;20538;-41
2023/06/04 04:50:28;;;;;;;20.00;6.72;;;11.40;99.90;;;;;;4992612;28;20140;-40
2023/06/04 04:52:54;;;;;;;37.38;8.43;;;11.40;99.90;;;;;;4992250;28;20086;-40
2023/06/04 04:55:21;;;;;;;17.10;6.72;;;11.50;99.90;;;;;;4991809;28;20050;-37
2023/06/04 04:57:48;;;;;;;13.60;6.18;;;11.50;99.90;;;;;;4992883;28;20050;-36
2023/06/04 05:00:16;;;;;;;11.00;5.20;;;11.50;99.90;;;;;;4992130;28;20128;-40
2023/06/04 05:02:43;;;;;;;17.27;6.65;;;11.60;99.90;;;;;;4990417;28;20483;-39
2023/06/04 05:05:12;;;;;;;12.20;5.22;;;11.60;99.90;;;;;;4992532;28;20109;-37
2023/06/04 05:07:39;;;;;;;16.98;6.68;;;11.70;99.90;;;;;;4992413;28;20100;-39
2023/06/04 05:10:06;;;;;;;12.18;4.32;;;11.80;99.90;;;;;;4991493;28;20065;-40
2023/06/04 05:12:33;;;;;;;14.90;5.85;;;11.80;99.90;;;;;;4990156;28;20116;-38
2023/06/04 05:15:03;;;;;;;15.15;6.00;;;11.90;99.90;;;;;;4990232;28;20058;-41
2023/06/04 05:17:30;;;;;;;13.57;5.63;;;11.90;99.90;;;;;;4989501;28;20061;-41
2023/06/04 05:20:05;;;;;;;12.80;5.53;;;12.00;99.90;;;;;;4992214;28;20050;-39
2023/06/04 05:22:33;;;;;;;12.43;5.35;;;12.10;99.90;;;;;;4991568;28;20100;-43
2023/06/04 05:25:00;;;;;;;11.52;4.82;;;12.20;99.90;;;;;;4990785;28;20054;-41
2023/06/04 05:27:27;;;;;;;19.85;5.70;;;12.30;99.90;;;;;;4991489;28;20092;-38
2023/06/04 05:29:55;;;;;;;15.07;6.38;;;12.40;99.90;;;;;;4991870;28;20054;-39
2023/06/04 05:32:22;;;;;;;16.48;6.82;;;12.50;99.90;;;;;;4991925;28;20046;-40
2023/06/04 05:34:49;;;;;;;12.50;5.85;;;12.60;99.90;;;;;;4991868;28;20490;-43
2023/06/04 05:37:17;;;;;;;13.02;5.65;;;12.60;99.90;;;;;;4982241;28;20056;-39
2023/06/04 05:39:45;;;;;;;16.27;6.93;;;12.80;99.90;;;;;;4991414;28;20054;-41
2023/06/04 05:42:13;;;;;;;12.88;6.10;;;12.90;99.90;;;;;;4984815;28;20058;-39
2023/06/04 05:44:40;;;;;;;14.90;6.80;;;13.00;99.90;;;;;;4990632;28;20462;-43
2023/06/04 05:47:07;;;;;;;12.52;6.10;;;13.00;99.90;;;;;;4989855;28;20089;-39
2023/06/04 05:49:35;;;;;;;18.83;7.47;;;13.10;99.90;;;;;;4990177;28;20454;-39
2023/06/04 05:52:01;;;;;;;16.45;7.03;;;13.20;99.90;;;;;;4991956;28;20109;-42
2023/06/04 05:54:29;;;;;;;15.95;6.28;;;13.20;99.90;;;;;;4993798;28;20050;-41
2023/06/04 05:56:57;;;;;;;13.07;7.25;;;13.30;99.90;;;;;;4990603;28;20054;-40
2023/06/04 05:59:24;;;;;;;13.68;6.80;;;13.40;99.90;;;;;;4995716;28;20054;-41
2023/06/04 06:01:51;;;;;;;13.38;6.07;;;13.50;99.90;;;;;;4995667;28;20468;-40
2023/06/04 06:04:18;;;;;;;12.73;5.95;;;13.60;99.90;;;;;;4993192;28;20043;-38
2023/06/04 06:06:47;;;;;;;16.60;6.38;;;13.80;99.90;;;;;;4995636;28;20050;-39
2023/06/04 06:09:14;;;;;;;18.27;6.70;;;13.90;99.90;;;;;;4995306;28;20113;-41
2023/06/04 06:11:41;;;;;;;15.20;6.00;;;14.00;99.90;;;;;;4995014;28;20129;-42
2023/06/04 06:14:09;;;;;;;16.30;5.97;;;14.10;99.90;;;;;;4994781;28;20069;-43
2023/06/04 06:16:37;;;;;;;16.15;6.32;;;14.20;99.90;;;;;;4980223;28;20135;-43
2023/06/04 06:19:04;;;;;;;15.43;6.55;;;14.30;99.90;;;;;;4995324;28;20050;-39
2023/06/04 06:21:31;;;;;;;14.48;5.75;;;14.40;99.90;;;;;;4993069;28;20446;-40
2023/06/04 06:23:57;;;;;;;15.32;6.43;;;14.50;99.90;;;;;;4995509;28;20105;-40
2023/06/04 06:26:25;;;;;;;14.00;6.35;;;14.60;99.90;;;;;;4988699;28;20082;-39
2023/06/04 06:28:51;;;;;;;12.70;5.90;;;14.70;99.90;;;;;;4978645;28;20054;-43
2023/06/04 06:31:20;;;;;;;16.58;5.78;;;14.80;99.90;;;;;;4994769;28;20050;-41
2023/06/04 06:33:47;;;;;;;16.25;5.85;;;14.90;99.90;;;;;;4981999;28;20058;-42
2023/06/04 06:36:13;;;;;;;9.68;5.03;;;15.10;99.90;;;;;;4987598;28;20086;-43
2023/06/04 06:38:40;;;;;;;15.48;5.57;;;15.20;99.90;;;;;;4993753;28;20097;-41
2023/06/04 06:41:07;;;;;;;11.10;4.95;;;15.30;99.90;;;;;;4994667;28;20050;-41
2023/06/04 06:43:34;;;;;;;12.52;4.63;;;15.50;99.90;;;;;;4994852;28;20050;-40
2023/06/04 06:46:01;;;;;;;11.88;4.72;;;15.60;99.90;;;;;;4994821;28;20568;-43
2023/06/04 06:48:29;;;;;;;11.75;4.50;;;15.70;99.90;;;;;;4993375;28;20510;-43
2023/06/04 06:50:56;;;;;;;13.27;4.53;;;15.80;99.90;;;;;;4994194;28;20490;-42
2023/06/04 06:53:23;;;;;;;11.23;4.10;;;15.80;99.90;;;;;;4993368;28;20054;-42
2023/06/04 06:55:49;;;;;;;14.68;4.28;;;16.00;99.90;;;;;;4995153;28;20090;-42
2023/06/04 06:58:16;;;;;;;15.52;4.05;;;16.20;99.90;;;;;;4994768;28;20078;-41
2023/06/04 07:00:43;;;;;;;12.27;3.80;;;16.30;99.90;;;;;;4993556;28;20082;-41
2023/06/04 07:03:10;;;;;;;9.13;3.40;;;16.40;99.90;;;;;;4994426;28;20077;-42
2023/06/04 07:05:38;;;;;;;16.52;4.28;;;16.50;99.90;;;;;;4992396;28;20109;-42
2023/06/04 07:08:05;;;;;;;13.07;3.45;;;16.60;99.90;;;;;;4993794;28;20058;-41
2023/06/04 07:10:32;;;;;;;9.63;3.08;;;16.70;99.90;;;;;;4975654;28;20059;-43
2023/06/04 07:12:58;;;;;;;15.80;3.55;;;16.80;99.90;;;;;;4989988;28;20089;-43
2023/06/04 07:15:25;;;;;;;12.32;3.47;;;17.00;99.90;;;;;;4987737;28;20098;-43
2023/06/04 07:17:52;;;;;;;8.75;3.42;;;17.20;99.90;;;;;;4980243;28;20129;-42
2023/06/04 07:20:19;;;;;;;9.35;3.20;;;17.30;99.90;;;;;;4993203;28;20085;-43
2023/06/04 07:22:47;;;;;;;12.05;3.00;;;17.40;99.90;;;;;;4994617;28;20441;-41
2023/06/04 07:25:13;;;;;;;6.97;3.50;;;17.40;99.90;;;;;;4992996;28;20054;-43
2023/06/04 07:27:40;;;;;;;11.57;3.25;;;17.60;99.90;;;;;;4986796;28;20109;-43
2023/06/04 07:30:08;;;;;;;9.73;2.83;;;17.80;99.90;;;;;;4980928;28;20121;-41
2023/06/04 07:32:35;;;;;;;17.35;3.70;;;17.80;99.90;;;;;;4993712;28;20046;-44
2023/06/04 07:35:02;;;;;;;14.25;2.83;;;18.00;99.90;;;;;;4993447;28;20120;-44
2023/06/04 07:37:29;;;;;;;11.73;3.42;;;18.10;99.90;;;;;;4993112;28;20078;-43
2023/06/04 07:39:58;;;;;;;8.73;3.10;;;18.20;99.90;;;;;;4993194;28;20107;-43
2023/06/04 07:42:24;;;;;;;9.60;2.85;;;18.30;99.70;;;;;;4992905;28;20062;-43
2023/06/04 07:44:51;;;;;;;11.13;3.13;;;18.40;99.80;;;;;;4989261;28;20188;-42
2023/06/04 07:47:18;;;;;;;7.70;2.38;;;18.50;99.60;;;;;;4987319;28;20112;-41
2023/06/04 07:49:45;;;;;;;6.72;2.20;;;18.60;99.70;;;;;;4990018;28;20089;-44
2023/06/04 07:52:11;;;;;;;10.15;2.75;;;18.80;99.50;;;;;;4980085;28;20059;-42
2023/06/04 07:54:41;;;;;;;8.63;2.70;;;19.10;98.90;;;;;;4979388;28;20160;-43
2023/06/04 07:57:10;;;;;;;9.57;2.60;;;19.20;98.30;;;;;;4977530;28;20050;-42
2023/06/04 07:59:36;;;;;;;10.90;3.53;;;19.20;97.80;;;;;;4992103;28;20112;-44
2023/06/04 08:02:03;;;;;;;12.93;3.17;;;19.30;97.30;;;;;;4983551;28;20142;-42
2023/06/04 08:04:31;;;;;;;12.77;2.97;;;19.30;97.10;;;;;;4986839;28;20398;-42
2023/06/04 08:07:00;;;;;;;9.10;2.50;;;19.40;97.40;;;;;;4983518;28;20061;-43
2023/06/04 08:09:27;;;;;;;8.65;2.30;;;19.60;97.00;;;;;;4978630;28;20050;-43
2023/06/04 08:11:54;;;;;;;7.50;2.47;;;19.70;96.80;;;;;;4992404;28;20100;-42
2023/06/04 08:14:24;;;;;;;12.52;2.60;;;20.00;96.40;;;;;;4992352;28;20458;-41
2023/06/04 08:16:51;;;;;;;9.45;2.35;;;20.10;96.50;;;;;;4991846;28;20514;-41
2023/06/04 08:19:18;;;;;;;9.05;2.42;;;20.20;96.20;;;;;;4991145;28;20395;-42
2023/06/04 08:21:47;;;;;;;8.95;2.50;;;20.30;96.30;;;;;;4990661;28;20133;-43
2023/06/04 08:24:13;;;;;;;10.90;2.45;;;20.40;95.90;;;;;;4980955;28;20062;-43
2023/06/04 08:26:40;;;;;;;8.93;2.17;;;20.60;95.10;;;;;;4993658;28;20105;-43
2023/06/04 08:29:07;;;;;;;7.45;2.17;;;20.70;94.70;;;;;;4976749;28;20081;-36
2023/06/04 08:31:35;;;;;;;6.55;2.03;;;21.00;94.30;;;;;;4983788;28;20046;-43
2023/06/04 08:34:05;;;;;;;8.27;2.42;;;21.10;93.70;;;;;;4991906;28;20475;-44
2023/06/04 08:36:32;;;;;;;11.88;2.55;;;21.30;93.20;;;;;;4981843;28;20181;-44
2023/06/04 08:38:59;;;;;;;7.18;1.90;;;21.30;92.40;;;;;;4991902;28;20478;-44
2023/06/04 08:41:29;;;;;;;7.10;2.08;;;21.40;92.20;;;;;;4989338;28;20129;-44
2023/06/04 08:43:56;;;;;;;7.35;2.28;;;21.60;92.00;;;;;;4992649;28;20053;-45
2023/06/04 08:46:23;;;;;;;5.20;1.77;;;21.70;91.90;;;;;;4986450;28;20104;-44
2023/06/04 08:48:51;;;;;;;6.75;1.80;;;22.00;91.40;;;;;;4992024;28;20057;-35
2023/06/04 08:51:18;;;;;;;7.32;2.00;;;22.20;89.90;;;;;;4983683;28;20086;-44
2023/06/04 08:53:47;;;;;;;5.68;1.73;;;22.20;88.30;;;;;;4979817;28;20050;-41
2023/06/04 08:56:14;;;;;;;5.22;1.73;;;22.20;88.90;;;;;;4975924;28;20838;-43
2023/06/04 08:58:41;;;;;;;6.93;2.17;;;22.30;87.60;;;;;;4992331;28;20060;-44
2023/06/04 09:01:08;;;;;;;6.38;1.77;;;22.40;87.80;;;;;;4992218;28;20573;-43
2023/06/04 09:03:35;;;;;;;7.90;1.77;;;22.50;86.70;;;;;;4991028;28;20054;-45
2023/06/04 09:06:04;;;;;;;7.32;1.60;;;22.60;84.30;;;;;;4991285;28;20503;-43
2023/06/04 09:08:32;;;;;;;4.93;1.73;;;22.70;82.90;;;;;;4990673;28;20054;-43
2023/06/04 09:10:59;;;;;;;7.53;1.70;;;22.80;80.10;;;;;;4981739;28;20078;-44
2023/06/04 09:13:29;;;;;;;10.48;2.33;;;22.80;79.90;;;;;;4988571;28;20078;-43
2023/06/04 09:16:02;;;;;;;11.68;2.10;;;22.80;79.80;;;;;;4987623;28;20054;-44
2023/06/04 09:18:29;;;;;;;6.97;1.83;;;22.80;79.70;;;;;;4989979;28;20141;-41
2023/06/04 09:21:05;;;;;;;7.43;1.83;;;22.90;81.20;;;;;;4983973;28;20057;-42
2023/06/04 09:23:32;;;;;;;6.38;1.70;;;22.90;79.80;;;;;;4985146;28;20050;-43
2023/06/04 09:26:07;;;;;;;6.43;1.65;;;23.00;80.00;;;;;;4982533;28;20038;-43
2023/06/04 09:28:34;;;;;;;7.18;1.60;;;23.20;79.40;;;;;;4988541;28;20061;-44
2023/06/04 09:31:02;;;;;;;5.47;1.30;;;23.40;78.20;;;;;;4989631;28;20046;-44
2023/06/04 09:33:29;;;;;;;5.53;1.70;;;23.50;78.70;;;;;;4983099;28;20046;-45
2023/06/04 09:35:56;;;;;;;6.93;1.95;;;23.70;77.00;;;;;;4985734;28;20054;-44
2023/06/04 09:38:24;;;;;;;7.22;1.45;;;23.80;76.30;;;;;;4982330;28;20082;-44
2023/06/04 09:40:51;;;;;;;7.43;1.70;;;23.90;76.20;;;;;;4977927;28;20050;-44
2023/06/04 09:43:24;;;;;;;4.80;1.58;;;24.00;75.50;;;;;;4983488;28;20110;-44
2023/06/04 09:45:51;;;;;;;5.78;1.65;;;24.10;73.20;;;;;;4986596;28;20058;-45
2023/06/04 09:48:22;;;;;;;4.22;1.42;;;24.10;72.60;;;;;;4988063;28;20085;-43
2023/06/04 09:50:48;;;;;;;5.53;1.60;;;24.20;73.30;;;;;;4987471;28;20486;-44
2023/06/04 09:53:15;;;;;;;4.43;1.63;;;24.30;72.90;;;;;;4990990;28;20104;-41
2023/06/04 09:55:43;;;;;;;5.10;1.70;;;24.40;72.60;;;;;;4990587;28;20109;-43
2023/06/04 09:58:11;;;;;;;4.55;1.50;;;24.60;71.60;;;;;;4991601;28;20498;-44
2023/06/04 10:00:38;;;;;;;2.95;1.48;;;24.70;71.40;;;;;;4988077;28;20518;-44
2023/06/04 10:03:05;;;;;;;6.05;1.85;;;24.90;70.90;;;;;;4991685;28;20411;-44
2023/06/04 10:05:33;;;;;;;13.88;1.85;;;25.00;68.90;;;;;;4990360;28;20090;-43
2023/06/04 10:08:00;;;;;;;4.15;1.73;;;24.90;68.50;;;;;;4991735;28;20050;-44
2023/06/04 10:10:27;;;;;;;3.00;1.30;;;25.00;67.90;;;;;;4990789;28;20082;-44
2023/06/04 10:12:57;;;;;;;3.92;1.40;;;25.10;67.90;;;;;;4990261;28;20392;-45
2023/06/04 10:15:24;;;;;;;3.60;1.40;;;25.30;67.20;;;;;;4988562;28;20453;-44
2023/06/04 10:17:51;;;;;;;5.05;1.50;;;25.40;66.40;;;;;;4976576;28;20054;-42
2023/06/04 10:20:19;;;;;;;3.38;1.30;;;25.40;65.30;;;;;;4982292;28;20130;-45
2023/06/04 10:22:46;;;;;;;6.03;1.60;;;25.60;64.90;;;;;;4974806;28;20058;-43
2023/06/04 10:25:13;;;;;;;3.97;1.30;;;25.70;64.20;;;;;;4989083;28;20511;-44
2023/06/04 10:27:40;;;;;;;4.00;1.40;;;25.70;64.50;;;;;;4975789;28;20082;-45
2023/06/04 10:30:09;;;;;;;4.00;1.30;;;25.60;62.50;;;;;;4980601;28;20043;-45
2023/06/04 10:32:36;;;;;;;5.60;1.60;;;25.50;61.80;;;;;;4976945;28;20492;-42
2023/06/04 10:35:06;;;;;;;4.70;1.52;;;25.40;61.30;;;;;;4981177;28;20487;-44
2023/06/04 10:37:33;;;;;;;3.78;1.38;;;25.40;61.20;;;;;;5003020;28;20061;-40
2023/06/04 10:40:05;;;;;;;3.80;1.23;;;25.40;61.00;;;;;;4990341;28;20105;-45
2023/06/04 10:42:38;;;;;;;3.13;1.10;;;25.60;61.20;;;;;;4992204;28;20101;-43
2023/06/04 10:45:08;;;;;;;3.08;1.27;;;25.70;60.20;;;;;;4992963;28;20526;-45
2023/06/04 10:47:37;;;;;;;3.20;1.20;;;25.90;60.80;;;;;;4994691;28;20397;-45
2023/06/04 10:50:11;;;;;;;3.97;1.40;;;25.90;60.30;;;;;;4995716;28;20054;-45
2023/06/04 10:52:38;;;;;;;4.20;1.45;;;26.00;58.60;;;;;;4981221;28;20077;-46
2023/06/04 10:55:05;;;;;;;4.25;1.58;;;25.90;58.40;;;;;;4985056;28;20122;-46
2023/06/04 10:57:32;;;;;;;5.47;1.40;;;26.00;59.10;;;;;;4986108;28;20121;-45
2023/06/04 10:59:59;;;;;;;3.85;1.67;;;26.10;60.40;;;;;;4989131;28;20047;-44
2023/06/04 11:02:28;;;;;;;3.13;1.05;;;26.30;60.00;;;;;;4976450;28;20055;-43
2023/06/04 11:05:05;;;;;;;5.53;1.50;;;26.40;58.90;;;;;;4995101;28;20520;-43
2023/06/04 11:07:42;;;;;;;4.80;1.60;;;26.50;57.80;;;;;;4991936;28;20046;-44
2023/06/04 11:10:09;;;;;;;4.20;1.33;;;26.70;58.60;;;;;;4992721;28;20479;-44
2023/06/04 11:12:42;;;;;;;3.78;1.30;;;26.70;59.80;;;;;;4994378;28;20497;-44
2023/06/04 11:15:10;;;;;;;4.95;1.40;;;26.90;59.40;;;;;;4987076;28;20472;-41
2023/06/04 11:17:38;;;;;;;3.72;1.70;;;27.00;58.00;;;;;;4974786;28;20055;-44
2023/06/04 11:20:06;;;;;;;2.70;1.40;;;27.00;57.70;;;;;;4975179;28;20109;-43
2023/06/04 11:22:34;;;;;;;5.38;1.67;;;27.00;56.80;;;;;;4990780;28;20062;-41
2023/06/04 11:25:03;;;;;;;3.88;1.45;;;27.10;57.00;;;;;;4993793;28;20073;-44
2023/06/04 11:27:30;;;;;;;3.28;1.30;;;27.10;57.30;;;;;;4979765;28;20058;-41
2023/06/04 11:29:57;;;;;;;4.38;1.30;;;27.20;56.90;;;;;;4990186;28;20042;-44
2023/06/04 11:32:24;;;;;;;4.63;1.67;;;27.30;57.20;;;;;;4994642;28;20058;-44
2023/06/04 11:34:52;;;;;;;2.53;1.40;;;27.50;57.90;;;;;;4992770;28;20056;-44
2023/06/04 11:37:19;;;;;;;4.18;1.55;;;27.60;56.40;;;;;;4982727;28;20409;-44
2023/06/04 11:39:45;;;;;;;3.60;1.70;;;27.60;56.90;;;;;;4981641;28;20124;-41
2023/06/04 11:42:12;;;;;;;4.82;1.40;;;27.70;57.20;;;;;;4990563;28;20058;-45
2023/06/04 11:44:44;;;;;;;2.83;1.48;;;27.70;56.20;;;;;;4974955;28;20569;-44
2023/06/04 11:47:11;;;;;;;4.35;1.70;;;27.60;55.70;;;;;;4991298;28;20084;-46
2023/06/04 11:49:38;;;;;;;6.28;1.88;;;27.60;58.00;;;;;;4987655;28;20395;-46
2023/06/04 11:52:07;;;;;;;3.75;1.50;;;27.70;58.30;;;;;;4992749;28;20430;-45
2023/06/04 11:54:38;;;;;;;5.90;1.60;;;27.90;57.70;;;;;;4990100;28;20050;-44
2023/06/04 11:57:05;;;;;;;2.92;1.55;;;28.00;57.00;;;;;;4974038;28;20059;-41
2023/06/04 11:59:32;;;;;;;4.75;1.48;;;28.10;56.60;;;;;;4991786;28;20055;-43
2023/06/04 12:01:59;;;;;;;3.47;1.55;;;28.10;56.40;;;;;;4992432;28;20050;-43
2023/06/04 12:04:25;;;;;;;6.20;1.70;;;27.90;55.30;;;;;;4993039;28;20128;-45
2023/06/04 12:06:53;;;;;;;4.18;1.60;;;27.70;56.00;;;;;;4985685;28;20113;-44
2023/06/04 12:09:27;;;;;;;4.13;1.83;;;27.80;57.20;;;;;;4990495;28;20054;-44
2023/06/04 12:11:58;;;;;;;6.88;1.92;;;27.90;56.40;;;;;;4987999;28;20102;-45
2023/06/04 12:14:25;;;;;;;6.20;1.90;;;28.00;56.00;;;;;;4979114;28;20164;-44
2023/06/04 12:16:58;;;;;;;6.28;1.38;;;28.00;55.10;;;;;;4990875;28;20093;-44
2023/06/04 12:19:26;;;;;;;4.57;1.63;;;28.00;56.70;;;;;;4977947;28;20183;-43
2023/06/04 12:22:02;;;;;;;5.50;1.50;;;28.00;56.60;;;;;;4987976;28;20043;-45
2023/06/04 12:24:30;;;;;;;3.40;1.70;;;28.10;56.40;;;;;;4981609;28;20513;-46
2023/06/04 12:27:04;;;;;;;4.20;1.50;;;28.10;57.30;;;;;;4981196;28;20058;-42
2023/06/04 12:29:31;;;;;;;3.53;1.70;;;28.30;56.70;;;;;;4979983;28;20157;-43
2023/06/04 12:32:03;;;;;;;6.78;1.50;;;28.30;55.70;;;;;;4980804;28;21564;-42
2023/06/04 12:34:29;;;;;;;43.88;32.10;;;28.40;56.50;;;;;;4977683;28;20125;-44
2023/06/04 12:36:56;;;;;;;6.72;3.25;;;28.40;55.60;;;;;;4973136;28;20149;-44
2023/06/04 12:39:23;;;;;;;6.72;2.35;;;28.50;56.50;;;;;;4987927;28;20050;-44
2023/06/04 12:41:51;;;;;;;3.78;1.90;;;28.70;57.40;;;;;;4985745;28;20086;-44
2023/06/04 12:44:18;;;;;;;3.65;2.10;;;28.70;56.00;;;;;;4987865;28;20558;-42
2023/06/04 12:46:45;;;;;;;6.72;2.17;;;28.70;56.50;;;;;;4979716;28;20054;-45